sensor_id;sensor_type;location;lat;lon;timestamp;temperature;humidity
4643;DHT22;2334;48.710;9.622;2023-09-18T00:01:21;21.20;99.90
4643;DHT22;2334;48.710;9.622;2023-09-18T00:03:47;21.20;99.90
4643;DHT22;2334;48.710;9.622;2023-09-18T00:06:14;21.20;99.90
4643;DHT22;2334;48.710;9.622;2023-09-18T00:08:41;21.10;99.90
4643;DHT22;2334;48.710;9.622;2023-09-18T00:11:09;21.10;99.90
4643;DHT22;2334;48.710;9.622;2023-09-18T00:13:37;21.10;99.90
4643;DHT22;2334;48.710;9.622;2023-09-18T00:16:05;21.00;99.90
4643;DHT22;2334;48.710;9.622;2023-09-18T00:18:32;21.00;99.90
4643;DHT22;2334;48.710;9.622;2023-09-18T00:20:59;21.00;99.90
4643;DHT22;2334;48.710;9.622;2023-09-18T00:23:26;21.00;99.90
4643;DHT22;2334;48.710;9.622;2023-09-18T00:25:53;21.00;99.90
4643;DHT22;2334;48.710;9.622;2023-09-18T00:28:20;21.00;99.90
4643;DHT22;2334;48.710;9.622;2023-09-18T00:30:49;20.90;99.90
4643;DHT22;2334;48.710;9.622;2023-09-18T00:33:18;20.90;99.90
4643;DHT22;2334;48.710;9.622;2023-09-18T00:35:46;20.80;99.90
4643;DHT22;2334;48.710;9.622;2023-09-18T00:38:13;20.80;99.90
4643;DHT22;2334;48.710;9.622;2023-09-18T00:40:40;20.70;99.90
4643;DHT22;2334;48.710;9.622;2023-09-18T00:43:07;20.70;99.90
4643;DHT22;2334;48.710;9.622;2023-09-18T00:45:35;20.70;99.90
4643;DHT22;2334;48.710;9.622;2023-09-18T00:48:03;20.70;99.90
4643;DHT22;2334;48.710;9.622;2023-09-18T00:50:32;20.70;99.90
4643;DHT22;2334;48.710;9.622;2023-09-18T00:52:59;20.70;99.90
4643;DHT22;2334;48.710;9.622;2023-09-18T00:55:28;20.60;99.90
4643;DHT22;2334;48.710;9.622;2023-09-18T00:57:56;20.50;99.90
4643;DHT22;2334;48.710;9.622;2023-09-18T01:00:23;20.50;99.90
4643;DHT22;2334;48.710;9.622;2023-09-18T01:02:50;20.50;99.90
4643;DHT22;2334;48.710;9.622;2023-09-18T01:05:17;20.40;99.90
4643;DHT22;2334;48.710;9.622;2023-09-18T01:07:47;20.40;99.90
4643;DHT22;2334;48.710;9.622;2023-09-18T01:10:14;20.50;99.90
4643;DHT22;2334;48.710;9.622;2023-09-18T01:12:46;20.50;99.90
4643;DHT22;2334;48.710;9.622;2023-09-18T01:15:22;20.50;99.90
4643;DHT22;2334;48.710;9.622;2023-09-18T01:17:53;20.50;99.90
4643;DHT22;2334;48.710;9.622;2023-09-18T01:20:20;20.50;99.90
4643;DHT22;2334;48.710;9.622;2023-09-18T01:22:48;20.40;99.90
4643;DHT22;2334;48.710;9.622;2023-09-18T01:25:15;20.40;99.90
4643;DHT22;2334;48.710;9.622;2023-09-18T01:27:42;20.40;99.90
4643;DHT22;2334;48.710;9.622;2023-09-18T01:30:10;20.40;99.90
4643;DHT22;2334;48.710;9.622;2023-09-18T01:32:38;20.50;99.90
4643;DHT22;2334;48.710;9.622;2023-09-18T01:35:06;20.50;99.90
4643;DHT22;2334;48.710;9.622;2023-09-18T01:37:34;20.60;99.90
4643;DHT22;2334;48.710;9.622;2023-09-18T01:40:04;20.60;99.90
4643;DHT22;2334;48.710;9.622;2023-09-18T01:42:33;20.60;99.90
4643;DHT22;2334;48.710;9.622;2023-09-18T01:45:01;20.60;99.90
4643;DHT22;2334;48.710;9.622;2023-09-18T01:47:28;20.50;99.90
4643;DHT22;2334;48.710;9.622;2023-09-18T01:49:55;20.50;99.90
4643;DHT22;2334;48.710;9.622;2023-09-18T01:52:22;20.50;99.90
4643;DHT22;2334;48.710;9.622;2023-09-18T01:54:49;20.40;99.90
4643;DHT22;2334;48.710;9.622;2023-09-18T01:57:17;20.30;99.90
4643;DHT22;2334;48.710;9.622;2023-09-18T01:59:44;20.30;99.90
4643;DHT22;2334;48.710;9.622;2023-09-18T02:02:11;20.20;99.90
4643;DHT22;2334;48.710;9.622;2023-09-18T02:04:38;20.20;99.90
4643;DHT22;2334;48.710;9.622;2023-09-18T02:07:05;20.10;99.90
4643;DHT22;2334;48.710;9.622;2023-09-18T02:09:33;20.10;99.90
4643;DHT22;2334;48.710;9.622;2023-09-18T02:12:00;19.90;99.90
4643;DHT22;2334;48.710;9.622;2023-09-18T02:14:28;19.70;99.90
4643;DHT22;2334;48.710;9.622;2023-09-18T02:16:56;19.70;99.90
4643;DHT22;2334;48.710;9.622;2023-09-18T02:19:22;19.70;99.90
4643;DHT22;2334;48.710;9.622;2023-09-18T02:21:49;19.70;99.90
4643;DHT22;2334;48.710;9.622;2023-09-18T02:24:16;19.70;99.90
4643;DHT22;2334;48.710;9.622;2023-09-18T02:26:43;19.80;99.90
4643;DHT22;2334;48.710;9.622;2023-09-18T02:29:10;19.80;99.90
4643;DHT22;2334;48.710;9.622;2023-09-18T02:31:40;19.80;99.90
4643;DHT22;2334;48.710;9.622;2023-09-18T02:34:07;19.80;99.90
4643;DHT22;2334;48.710;9.622;2023-09-18T02:36:35;19.80;99.90
4643;DHT22;2334;48.710;9.622;2023-09-18T02:39:02;19.80;99.90
4643;DHT22;2334;48.710;9.622;2023-09-18T02:41:29;19.90;99.90
4643;DHT22;2334;48.710;9.622;2023-09-18T02:43:56;19.80;99.90
4643;DHT22;2334;48.710;9.622;2023-09-18T02:46:23;19.90;99.90
4643;DHT22;2334;48.710;9.622;2023-09-18T02:48:51;19.90;99.90
4643;DHT22;2334;48.710;9.622;2023-09-18T02:51:18;19.90;99.90
4643;DHT22;2334;48.710;9.622;2023-09-18T02:53:45;19.90;99.90
4643;DHT22;2334;48.710;9.622;2023-09-18T02:56:12;19.90;99.90
4643;DHT22;2334;48.710;9.622;2023-09-18T02:58:39;19.90;99.90
4643;DHT22;2334;48.710;9.622;2023-09-18T03:01:07;19.90;99.90
4643;DHT22;2334;48.710;9.622;2023-09-18T03:03:34;19.90;99.90
4643;DHT22;2334;48.710;9.622;2023-09-18T03:06:04;19.80;99.90
4643;DHT22;2334;48.710;9.622;2023-09-18T03:08:32;19.80;99.90
4643;DHT22;2334;48.710;9.622;2023-09-18T03:10:59;19.80;99.90
4643;DHT22;2334;48.710;9.622;2023-09-18T03:13:27;19.80;99.90
4643;DHT22;2334;48.710;9.622;2023-09-18T03:15:54;19.90;99.90
4643;DHT22;2334;48.710;9.622;2023-09-18T03:18:21;20.00;99.90
4643;DHT22;2334;48.710;9.622;2023-09-18T03:20:48;20.00;99.90
4643;DHT22;2334;48.710;9.622;2023-09-18T03:23:17;20.00;99.90
4643;DHT22;2334;48.710;9.622;2023-09-18T03:25:44;20.00;99.90
4643;DHT22;2334;48.710;9.622;2023-09-18T03:28:11;20.00;99.90
4643;DHT22;2334;48.710;9.622;2023-09-18T03:30:37;19.90;99.90
4643;DHT22;2334;48.710;9.622;2023-09-18T03:33:03;19.80;99.90
4643;DHT22;2334;48.710;9.622;2023-09-18T03:35:31;19.80;99.90
4643;DHT22;2334;48.710;9.622;2023-09-18T03:37:58;19.70;99.90
4643;DHT22;2334;48.710;9.622;2023-09-18T03:40:26;19.70;99.90
4643;DHT22;2334;48.710;9.622;2023-09-18T03:42:53;19.60;99.90
4643;DHT22;2334;48.710;9.622;2023-09-18T03:45:20;19.60;99.90
4643;DHT22;2334;48.710;9.622;2023-09-18T03:47:47;19.60;99.90
4643;DHT22;2334;48.710;9.622;2023-09-18T03:50:15;19.60;99.90
4643;DHT22;2334;48.710;9.622;2023-09-18T03:52:42;19.60;99.90
4643;DHT22;2334;48.710;9.622;2023-09-18T03:55:09;19.60;99.90
4643;DHT22;2334;48.710;9.622;2023-09-18T03:57:39;19.50;99.90
4643;DHT22;2334;48.710;9.622;2023-09-18T04:00:07;19.30;99.90
4643;DHT22;2334;48.710;9.622;2023-09-18T04:02:35;19.10;99.90
4643;DHT22;2334;48.710;9.622;2023-09-18T04:05:02;19.10;99.90
4643;DHT22;2334;48.710;9.622;2023-09-18T04:07:30;19.10;99.90
4643;DHT22;2334;48.710;9.622;2023-09-18T04:09:57;19.00;99.90
4643;DHT22;2334;48.710;9.622;2023-09-18T04:12:24;18.90;99.90
4643;DHT22;2334;48.710;9.622;2023-09-18T04:14:53;18.90;99.90
4643;DHT22;2334;48.710;9.622;2023-09-18T04:17:20;18.90;99.90
4643;DHT22;2334;48.710;9.622;2023-09-18T04:19:47;18.90;99.90
4643;DHT22;2334;48.710;9.622;2023-09-18T04:22:14;19.00;99.90
4643;DHT22;2334;48.710;9.622;2023-09-18T04:24:41;19.10;99.90
4643;DHT22;2334;48.710;9.622;2023-09-18T04:27:08;19.10;99.90
4643;DHT22;2334;48.710;9.622;2023-09-18T04:29:35;19.10;99.90
4643;DHT22;2334;48.710;9.622;2023-09-18T04:32:04;19.00;99.90
4643;DHT22;2334;48.710;9.622;2023-09-18T04:34:31;19.00;99.90
4643;DHT22;2334;48.710;9.622;2023-09-18T04:36:59;19.10;99.90
4643;DHT22;2334;48.710;9.622;2023-09-18T04:39:26;19.00;99.90
4643;DHT22;2334;48.710;9.622;2023-09-18T04:41:55;19.00;99.90
4643;DHT22;2334;48.710;9.622;2023-09-18T04:44:22;19.10;99.90
4643;DHT22;2334;48.710;9.622;2023-09-18T04:46:49;19.10;99.90
4643;DHT22;2334;48.710;9.622;2023-09-18T04:49:17;19.10;99.90
4643;DHT22;2334;48.710;9.622;2023-09-18T04:51:44;19.20;99.90
4643;DHT22;2334;48.710;9.622;2023-09-18T04:54:11;19.10;99.90
4643;DHT22;2334;48.710;9.622;2023-09-18T04:56:38;19.20;99.90
4643;DHT22;2334;48.710;9.622;2023-09-18T04:59:05;19.20;99.90
4643;DHT22;2334;48.710;9.622;2023-09-18T05:01:32;19.30;99.90
4643;DHT22;2334;48.710;9.622;2023-09-18T05:03:59;19.40;99.90
4643;DHT22;2334;48.710;9.622;2023-09-18T05:06:27;19.40;99.90
4643;DHT22;2334;48.710;9.622;2023-09-18T05:08:54;19.40;99.90
4643;DHT22;2334;48.710;9.622;2023-09-18T05:11:21;19.50;99.90
4643;DHT22;2334;48.710;9.622;2023-09-18T05:13:48;19.40;99.90
4643;DHT22;2334;48.710;9.622;2023-09-18T05:16:15;19.40;99.90
4643;DHT22;2334;48.710;9.622;2023-09-18T05:18:41;19.40;99.90
4643;DHT22;2334;48.710;9.622;2023-09-18T05:21:09;19.30;99.90
4643;DHT22;2334;48.710;9.622;2023-09-18T05:23:37;19.40;99.90
4643;DHT22;2334;48.710;9.622;2023-09-18T05:26:04;19.40;99.90
4643;DHT22;2334;48.710;9.622;2023-09-18T05:28:31;19.30;99.90
4643;DHT22;2334;48.710;9.622;2023-09-18T05:30:58;19.30;99.90
4643;DHT22;2334;48.710;9.622;2023-09-18T05:33:25;19.30;99.90
4643;DHT22;2334;48.710;9.622;2023-09-18T05:35:52;19.20;99.90
4643;DHT22;2334;48.710;9.622;2023-09-18T05:38:20;19.20;99.90
4643;DHT22;2334;48.710;9.622;2023-09-18T05:40:48;19.20;99.90
4643;DHT22;2334;48.710;9.622;2023-09-18T05:43:15;19.20;99.90
4643;DHT22;2334;48.710;9.622;2023-09-18T05:45:43;19.20;99.90
4643;DHT22;2334;48.710;9.622;2023-09-18T05:48:10;19.20;99.90
4643;DHT22;2334;48.710;9.622;2023-09-18T05:50:38;19.10;99.90
4643;DHT22;2334;48.710;9.622;2023-09-18T05:53:06;19.20;99.90
4643;DHT22;2334;48.710;9.622;2023-09-18T05:55:34;19.20;99.90
4643;DHT22;2334;48.710;9.622;2023-09-18T05:58:02;19.30;99.90
4643;DHT22;2334;48.710;9.622;2023-09-18T06:00:30;19.30;99.90
4643;DHT22;2334;48.710;9.622;2023-09-18T06:02:57;19.40;99.90
4643;DHT22;2334;48.710;9.622;2023-09-18T06:05:24;19.40;99.90
4643;DHT22;2334;48.710;9.622;2023-09-18T06:07:51;19.40;99.90
4643;DHT22;2334;48.710;9.622;2023-09-18T06:10:18;19.50;99.90
4643;DHT22;2334;48.710;9.622;2023-09-18T06:12:45;19.50;99.90
4643;DHT22;2334;48.710;9.622;2023-09-18T06:15:13;19.50;99.90
4643;DHT22;2334;48.710;9.622;2023-09-18T06:17:41;19.60;99.90
4643;DHT22;2334;48.710;9.622;2023-09-18T06:20:10;19.60;99.90
4643;DHT22;2334;48.710;9.622;2023-09-18T06:22:38;19.60;99.90
4643;DHT22;2334;48.710;9.622;2023-09-18T06:25:06;19.60;99.90
4643;DHT22;2334;48.710;9.622;2023-09-18T06:27:36;19.70;99.90
4643;DHT22;2334;48.710;9.622;2023-09-18T06:30:03;19.80;99.90
4643;DHT22;2334;48.710;9.622;2023-09-18T06:32:32;19.80;99.90
4643;DHT22;2334;48.710;9.622;2023-09-18T06:34:59;19.90;99.90
4643;DHT22;2334;48.710;9.622;2023-09-18T06:37:26;19.80;99.90
4643;DHT22;2334;48.710;9.622;2023-09-18T06:39:53;19.90;99.90
4643;DHT22;2334;48.710;9.622;2023-09-18T06:42:20;20.00;99.90
4643;DHT22;2334;48.710;9.622;2023-09-18T06:44:47;20.00;99.90
4643;DHT22;2334;48.710;9.622;2023-09-18T06:47:14;20.00;99.90
4643;DHT22;2334;48.710;9.622;2023-09-18T06:49:42;20.10;99.90
4643;DHT22;2334;48.710;9.622;2023-09-18T06:52:09;20.10;99.90
4643;DHT22;2334;48.710;9.622;2023-09-18T06:54:36;20.10;99.90
4643;DHT22;2334;48.710;9.622;2023-09-18T06:57:03;20.00;99.90
4643;DHT22;2334;48.710;9.622;2023-09-18T06:59:30;20.00;99.90
4643;DHT22;2334;48.710;9.622;2023-09-18T07:01:59;20.10;99.90
4643;DHT22;2334;48.710;9.622;2023-09-18T07:04:26;20.20;99.90
4643;DHT22;2334;48.710;9.622;2023-09-18T07:06:54;20.20;99.90
4643;DHT22;2334;48.710;9.622;2023-09-18T07:09:22;20.10;99.90
4643;DHT22;2334;48.710;9.622;2023-09-18T07:11:51;20.20;99.90
4643;DHT22;2334;48.710;9.622;2023-09-18T07:14:18;20.20;99.90
4643;DHT22;2334;48.710;9.622;2023-09-18T07:16:45;20.30;99.90
4643;DHT22;2334;48.710;9.622;2023-09-18T07:19:12;20.30;99.90
4643;DHT22;2334;48.710;9.622;2023-09-18T07:21:42;20.30;99.90
4643;DHT22;2334;48.710;9.622;2023-09-18T07:24:11;20.40;99.90
4643;DHT22;2334;48.710;9.622;2023-09-18T07:26:45;20.50;99.90
4643;DHT22;2334;48.710;9.622;2023-09-18T07:29:13;20.50;99.90
4643;DHT22;2334;48.710;9.622;2023-09-18T07:31:41;20.60;99.90
4643;DHT22;2334;48.710;9.622;2023-09-18T07:34:08;20.60;99.90
4643;DHT22;2334;48.710;9.622;2023-09-18T07:36:35;20.70;99.90
4643;DHT22;2334;48.710;9.622;2023-09-18T07:39:02;20.70;99.90
4643;DHT22;2334;48.710;9.622;2023-09-18T07:41:31;20.80;99.90
4643;DHT22;2334;48.710;9.622;2023-09-18T07:43:58;20.80;99.90
4643;DHT22;2334;48.710;9.622;2023-09-18T07:46:25;20.80;99.90
4643;DHT22;2334;48.710;9.622;2023-09-18T07:48:52;20.90;99.90
4643;DHT22;2334;48.710;9.622;2023-09-18T07:51:19;20.90;99.90
4643;DHT22;2334;48.710;9.622;2023-09-18T07:53:46;21.00;99.90
4643;DHT22;2334;48.710;9.622;2023-09-18T07:56:13;21.10;99.90
4643;DHT22;2334;48.710;9.622;2023-09-18T07:58:42;21.20;99.90
4643;DHT22;2334;48.710;9.622;2023-09-18T08:01:08;21.30;99.90
4643;DHT22;2334;48.710;9.622;2023-09-18T08:03:36;21.40;99.90
4643;DHT22;2334;48.710;9.622;2023-09-18T08:06:02;21.50;99.90
4643;DHT22;2334;48.710;9.622;2023-09-18T08:08:31;21.60;99.90
4643;DHT22;2334;48.710;9.622;2023-09-18T08:11:04;21.70;99.90
4643;DHT22;2334;48.710;9.622;2023-09-18T08:13:34;21.80;99.90
4643;DHT22;2334;48.710;9.622;2023-09-18T08:16:03;21.80;99.90
4643;DHT22;2334;48.710;9.622;2023-09-18T08:18:30;21.90;99.90
4643;DHT22;2334;48.710;9.622;2023-09-18T08:20:59;22.00;99.90
4643;DHT22;2334;48.710;9.622;2023-09-18T08:23:26;22.00;99.90
4643;DHT22;2334;48.710;9.622;2023-09-18T08:25:53;22.10;99.90
4643;DHT22;2334;48.710;9.622;2023-09-18T08:28:23;22.10;99.90
4643;DHT22;2334;48.710;9.622;2023-09-18T08:30:49;22.10;99.90
4643;DHT22;2334;48.710;9.622;2023-09-18T08:33:18;22.10;99.90
4643;DHT22;2334;48.710;9.622;2023-09-18T08:35:45;22.00;99.90
4643;DHT22;2334;48.710;9.622;2023-09-18T08:38:13;22.00;99.90
4643;DHT22;2334;48.710;9.622;2023-09-18T08:40:41;21.90;99.90
4643;DHT22;2334;48.710;9.622;2023-09-18T08:43:11;21.90;99.90
4643;DHT22;2334;48.710;9.622;2023-09-18T08:45:46;21.90;99.90
4643;DHT22;2334;48.710;9.622;2023-09-18T08:48:13;21.90;99.90
4643;DHT22;2334;48.710;9.622;2023-09-18T08:50:42;21.80;99.90
4643;DHT22;2334;48.710;9.622;2023-09-18T08:53:10;21.70;99.90
4643;DHT22;2334;48.710;9.622;2023-09-18T08:55:37;21.70;99.90
4643;DHT22;2334;48.710;9.622;2023-09-18T08:58:06;21.60;99.90
4643;DHT22;2334;48.710;9.622;2023-09-18T09:00:33;21.60;99.90
4643;DHT22;2334;48.710;9.622;2023-09-18T09:03:01;21.50;99.90
4643;DHT22;2334;48.710;9.622;2023-09-18T09:05:28;21.40;99.90
4643;DHT22;2334;48.710;9.622;2023-09-18T09:07:56;21.40;99.90
4643;DHT22;2334;48.710;9.622;2023-09-18T09:10:23;21.40;99.90
4643;DHT22;2334;48.710;9.622;2023-09-18T09:12:55;21.40;99.90
4643;DHT22;2334;48.710;9.622;2023-09-18T09:15:24;21.40;99.90
4643;DHT22;2334;48.710;9.622;2023-09-18T09:17:52;21.50;99.90
4643;DHT22;2334;48.710;9.622;2023-09-18T09:20:27;21.50;99.90
4643;DHT22;2334;48.710;9.622;2023-09-18T09:23:00;21.60;99.90
4643;DHT22;2334;48.710;9.622;2023-09-18T09:25:28;21.50;99.90
4643;DHT22;2334;48.710;9.622;2023-09-18T09:27:57;21.30;99.90
4643;DHT22;2334;48.710;9.622;2023-09-18T09:30:26;21.10;99.90
4643;DHT22;2334;48.710;9.622;2023-09-18T09:32:55;21.10;99.90
4643;DHT22;2334;48.710;9.622;2023-09-18T09:35:24;20.90;99.90
4643;DHT22;2334;48.710;9.622;2023-09-18T09:37:52;20.70;99.90
4643;DHT22;2334;48.710;9.622;2023-09-18T09:40:25;20.40;99.90
4643;DHT22;2334;48.710;9.622;2023-09-18T09:42:53;20.10;99.90
4643;DHT22;2334;48.710;9.622;2023-09-18T09:45:26;19.80;99.90
4643;DHT22;2334;48.710;9.622;2023-09-18T09:47:54;19.70;99.90
4643;DHT22;2334;48.710;9.622;2023-09-18T09:50:22;19.60;99.90
4643;DHT22;2334;48.710;9.622;2023-09-18T09:52:52;19.70;99.90
4643;DHT22;2334;48.710;9.622;2023-09-18T09:55:23;19.70;99.90
4643;DHT22;2334;48.710;9.622;2023-09-18T09:57:53;19.80;99.90
4643;DHT22;2334;48.710;9.622;2023-09-18T10:00:23;19.80;99.90
4643;DHT22;2334;48.710;9.622;2023-09-18T10:03:00;19.90;99.90
4643;DHT22;2334;48.710;9.622;2023-09-18T10:05:29;19.90;99.90
4643;DHT22;2334;48.710;9.622;2023-09-18T10:08:02;19.90;99.90
4643;DHT22;2334;48.710;9.622;2023-09-18T10:10:33;20.00;99.90
4643;DHT22;2334;48.710;9.622;2023-09-18T10:13:05;19.90;99.90
4643;DHT22;2334;48.710;9.622;2023-09-18T10:15:36;19.90;99.90
4643;DHT22;2334;48.710;9.622;2023-09-18T10:18:07;19.80;99.90
4643;DHT22;2334;48.710;9.622;2023-09-18T10:20:40;19.90;99.90
4643;DHT22;2334;48.710;9.622;2023-09-18T10:23:25;19.80;99.90
4643;DHT22;2334;48.710;9.622;2023-09-18T10:25:58;19.80;99.90
4643;DHT22;2334;48.710;9.622;2023-09-18T10:28:28;19.70;99.90
4643;DHT22;2334;48.710;9.622;2023-09-18T10:30:57;19.60;99.90
4643;DHT22;2334;48.710;9.622;2023-09-18T10:33:25;19.50;99.90
4643;DHT22;2334;48.710;9.622;2023-09-18T10:35:53;19.40;99.90
4643;DHT22;2334;48.710;9.622;2023-09-18T10:38:21;19.30;99.90
4643;DHT22;2334;48.710;9.622;2023-09-18T10:40:48;19.40;99.90
4643;DHT22;2334;48.710;9.622;2023-09-18T10:43:18;19.50;99.90
4643;DHT22;2334;48.710;9.622;2023-09-18T10:45:45;19.50;99.90
4643;DHT22;2334;48.710;9.622;2023-09-18T10:48:13;19.60;99.90
4643;DHT22;2334;48.710;9.622;2023-09-18T10:50:42;19.60;99.90
4643;DHT22;2334;48.710;9.622;2023-09-18T10:53:11;19.70;99.90
4643;DHT22;2334;48.710;9.622;2023-09-18T10:55:38;19.60;99.90
4643;DHT22;2334;48.710;9.622;2023-09-18T10:58:05;19.60;99.90
4643;DHT22;2334;48.710;9.622;2023-09-18T11:00:34;19.60;99.90
4643;DHT22;2334;48.710;9.622;2023-09-18T11:03:13;19.60;99.90
4643;DHT22;2334;48.710;9.622;2023-09-18T11:05:44;19.60;99.90
4643;DHT22;2334;48.710;9.622;2023-09-18T11:08:27;19.60;99.90
4643;DHT22;2334;48.710;9.622;2023-09-18T11:10:56;19.50;99.90
4643;DHT22;2334;48.710;9.622;2023-09-18T11:13:31;19.40;99.90
4643;DHT22;2334;48.710;9.622;2023-09-18T11:16:18;19.40;99.90
4643;DHT22;2334;48.710;9.622;2023-09-18T11:18:51;19.30;99.90
4643;DHT22;2334;48.710;9.622;2023-09-18T11:21:23;19.40;99.90
4643;DHT22;2334;48.710;9.622;2023-09-18T11:23:59;19.40;99.90
4643;DHT22;2334;48.710;9.622;2023-09-18T11:26:29;19.30;99.90
4643;DHT22;2334;48.710;9.622;2023-09-18T11:28:58;19.30;99.90
4643;DHT22;2334;48.710;9.622;2023-09-18T11:31:45;19.30;99.90
4643;DHT22;2334;48.710;9.622;2023-09-18T11:34:14;19.10;99.90
4643;DHT22;2334;48.710;9.622;2023-09-18T11:36:41;19.10;99.90
4643;DHT22;2334;48.710;9.622;2023-09-18T11:39:08;19.10;99.90
4643;DHT22;2334;48.710;9.622;2023-09-18T11:41:37;19.20;99.90
4643;DHT22;2334;48.710;9.622;2023-09-18T11:44:35;19.20;99.90
4643;DHT22;2334;48.710;9.622;2023-09-18T11:47:09;19.20;99.90
4643;DHT22;2334;48.710;9.622;2023-09-18T11:49:46;19.20;99.90
4643;DHT22;2334;48.710;9.622;2023-09-18T11:52:16;19.10;99.90
4643;DHT22;2334;48.710;9.622;2023-09-18T11:54:44;19.10;99.90
4643;DHT22;2334;48.710;9.622;2023-09-18T11:57:12;19.00;99.90
4643;DHT22;2334;48.710;9.622;2023-09-18T11:59:40;19.10;99.90
4643;DHT22;2334;48.710;9.622;2023-09-18T12:02:09;19.20;99.90
4643;DHT22;2334;48.710;9.622;2023-09-18T12:04:37;19.20;99.90
4643;DHT22;2334;48.710;9.622;2023-09-18T12:07:05;19.20;99.90
4643;DHT22;2334;48.710;9.622;2023-09-18T12:09:33;19.20;99.90
4643;DHT22;2334;48.710;9.622;2023-09-18T12:12:02;19.30;99.90
4643;DHT22;2334;48.710;9.622;2023-09-18T12:14:33;19.30;99.90
4643;DHT22;2334;48.710;9.622;2023-09-18T12:17:00;19.30;99.90
4643;DHT22;2334;48.710;9.622;2023-09-18T12:19:29;19.40;99.90
4643;DHT22;2334;48.710;9.622;2023-09-18T12:22:00;19.40;99.90
4643;DHT22;2334;48.710;9.622;2023-09-18T12:24:27;19.50;99.90
4643;DHT22;2334;48.710;9.622;2023-09-18T12:26:54;19.50;99.90
4643;DHT22;2334;48.710;9.622;2023-09-18T12:29:21;19.50;99.90
4643;DHT22;2334;48.710;9.622;2023-09-18T12:31:48;19.50;99.90
4643;DHT22;2334;48.710;9.622;2023-09-18T12:34:16;19.50;99.90
4643;DHT22;2334;48.710;9.622;2023-09-18T12:36:45;19.50;99.90
4643;DHT22;2334;48.710;9.622;2023-09-18T12:39:13;19.40;99.90
4643;DHT22;2334;48.710;9.622;2023-09-18T12:41:41;19.40;99.90
4643;DHT22;2334;48.710;9.622;2023-09-18T12:44:09;19.40;99.90
4643;DHT22;2334;48.710;9.622;2023-09-18T12:46:38;19.40;99.90
4643;DHT22;2334;48.710;9.622;2023-09-18T12:49:17;19.40;99.90
4643;DHT22;2334;48.710;9.622;2023-09-18T12:51:54;19.40;99.90
4643;DHT22;2334;48.710;9.622;2023-09-18T12:54:21;19.60;99.90
4643;DHT22;2334;48.710;9.622;2023-09-18T12:56:48;19.70;99.90
4643;DHT22;2334;48.710;9.622;2023-09-18T12:59:15;20.00;99.90
4643;DHT22;2334;48.710;9.622;2023-09-18T13:01:46;20.10;99.90
4643;DHT22;2334;48.710;9.622;2023-09-18T13:04:13;20.30;99.90
4643;DHT22;2334;48.710;9.622;2023-09-18T13:06:40;20.20;99.90
4643;DHT22;2334;48.710;9.622;2023-09-18T13:09:17;20.30;99.90
4643;DHT22;2334;48.710;9.622;2023-09-18T13:11:55;20.30;99.90
4643;DHT22;2334;48.710;9.622;2023-09-18T13:14:22;20.40;99.90
4643;DHT22;2334;48.710;9.622;2023-09-18T13:16:49;20.50;99.90
4643;DHT22;2334;48.710;9.622;2023-09-18T13:19:17;20.60;99.90
4643;DHT22;2334;48.710;9.622;2023-09-18T13:21:48;20.60;99.90
4643;DHT22;2334;48.710;9.622;2023-09-18T13:24:34;20.60;99.90
4643;DHT22;2334;48.710;9.622;2023-09-18T13:27:05;20.50;99.90
4643;DHT22;2334;48.710;9.622;2023-09-18T13:29:32;20.60;99.90
4643;DHT22;2334;48.710;9.622;2023-09-18T13:31:59;20.60;99.90
4643;DHT22;2334;48.710;9.622;2023-09-18T13:34:26;20.70;99.90
4643;DHT22;2334;48.710;9.622;2023-09-18T13:36:55;20.90;99.90
4643;DHT22;2334;48.710;9.622;2023-09-18T13:39:22;20.80;99.90
4643;DHT22;2334;48.710;9.622;2023-09-18T13:41:50;20.90;99.90
4643;DHT22;2334;48.710;9.622;2023-09-18T13:44:17;21.10;99.90
4643;DHT22;2334;48.710;9.622;2023-09-18T13:46:44;21.10;99.90
4643;DHT22;2334;48.710;9.622;2023-09-18T13:49:11;21.20;99.90
4643;DHT22;2334;48.710;9.622;2023-09-18T13:51:37;21.30;99.90
4643;DHT22;2334;48.710;9.622;2023-09-18T13:54:05;21.20;99.90
4643;DHT22;2334;48.710;9.622;2023-09-18T13:56:33;21.20;99.90
4643;DHT22;2334;48.710;9.622;2023-09-18T13:59:01;21.30;99.90
4643;DHT22;2334;48.710;9.622;2023-09-18T14:01:28;21.20;99.90
4643;DHT22;2334;48.710;9.622;2023-09-18T14:03:55;21.00;99.90
4643;DHT22;2334;48.710;9.622;2023-09-18T14:06:22;21.00;99.90
4643;DHT22;2334;48.710;9.622;2023-09-18T14:08:49;21.20;99.90
4643;DHT22;2334;48.710;9.622;2023-09-18T14:11:15;21.40;99.90
4643;DHT22;2334;48.710;9.622;2023-09-18T14:13:43;21.60;99.90
4643;DHT22;2334;48.710;9.622;2023-09-18T14:16:11;21.90;99.90
4643;DHT22;2334;48.710;9.622;2023-09-18T14:18:40;22.10;99.90
4643;DHT22;2334;48.710;9.622;2023-09-18T14:21:08;22.00;99.90
4643;DHT22;2334;48.710;9.622;2023-09-18T14:23:35;22.00;99.90
4643;DHT22;2334;48.710;9.622;2023-09-18T14:26:02;21.70;99.90
4643;DHT22;2334;48.710;9.622;2023-09-18T14:28:29;21.60;99.90
4643;DHT22;2334;48.710;9.622;2023-09-18T14:30:58;21.60;99.90
4643;DHT22;2334;48.710;9.622;2023-09-18T14:33:26;21.70;99.90
4643;DHT22;2334;48.710;9.622;2023-09-18T14:35:53;21.70;99.90
4643;DHT22;2334;48.710;9.622;2023-09-18T14:38:20;21.80;99.90
4643;DHT22;2334;48.710;9.622;2023-09-18T14:40:47;21.80;99.90
4643;DHT22;2334;48.710;9.622;2023-09-18T14:43:14;21.70;99.90
4643;DHT22;2334;48.710;9.622;2023-09-18T14:45:41;21.70;99.90
4643;DHT22;2334;48.710;9.622;2023-09-18T14:48:08;21.70;99.90
4643;DHT22;2334;48.710;9.622;2023-09-18T14:50:36;21.60;99.90
4643;DHT22;2334;48.710;9.622;2023-09-18T14:53:03;21.60;99.90
4643;DHT22;2334;48.710;9.622;2023-09-18T14:55:32;21.70;99.90
4643;DHT22;2334;48.710;9.622;2023-09-18T14:58:00;21.80;99.90
4643;DHT22;2334;48.710;9.622;2023-09-18T15:00:27;21.80;99.90
4643;DHT22;2334;48.710;9.622;2023-09-18T15:02:54;21.70;99.90
4643;DHT22;2334;48.710;9.622;2023-09-18T15:05:21;21.80;99.90
4643;DHT22;2334;48.710;9.622;2023-09-18T15:07:50;21.80;99.90
4643;DHT22;2334;48.710;9.622;2023-09-18T15:10:17;21.70;99.90
4643;DHT22;2334;48.710;9.622;2023-09-18T15:12:44;21.60;99.90
4643;DHT22;2334;48.710;9.622;2023-09-18T15:15:11;21.80;99.90
4643;DHT22;2334;48.710;9.622;2023-09-18T15:17:38;21.80;99.90
4643;DHT22;2334;48.710;9.622;2023-09-18T15:20:06;22.00;99.90
4643;DHT22;2334;48.710;9.622;2023-09-18T15:22:33;22.30;99.90
4643;DHT22;2334;48.710;9.622;2023-09-18T15:25:01;22.30;99.90
4643;DHT22;2334;48.710;9.622;2023-09-18T15:27:28;22.60;99.90
4643;DHT22;2334;48.710;9.622;2023-09-18T15:29:55;22.70;99.90
4643;DHT22;2334;48.710;9.622;2023-09-18T15:32:22;22.80;99.90
4643;DHT22;2334;48.710;9.622;2023-09-18T15:34:48;22.60;99.90
4643;DHT22;2334;48.710;9.622;2023-09-18T15:37:15;22.50;99.90
4643;DHT22;2334;48.710;9.622;2023-09-18T15:39:42;22.70;99.90
4643;DHT22;2334;48.710;9.622;2023-09-18T15:42:11;23.10;99.90
4643;DHT22;2334;48.710;9.622;2023-09-18T15:44:38;23.20;99.90
4643;DHT22;2334;48.710;9.622;2023-09-18T15:47:06;23.40;99.90
4643;DHT22;2334;48.710;9.622;2023-09-18T15:49:33;24.30;99.90
4643;DHT22;2334;48.710;9.622;2023-09-18T15:51:59;24.60;99.90
4643;DHT22;2334;48.710;9.622;2023-09-18T15:54:26;24.20;99.90
4643;DHT22;2334;48.710;9.622;2023-09-18T15:56:53;24.50;99.90
4643;DHT22;2334;48.710;9.622;2023-09-18T15:59:22;25.20;99.90
4643;DHT22;2334;48.710;9.622;2023-09-18T16:01:49;24.60;99.90
4643;DHT22;2334;48.710;9.622;2023-09-18T16:04:16;23.90;99.90
4643;DHT22;2334;48.710;9.622;2023-09-18T16:06:43;22.90;99.90
4643;DHT22;2334;48.710;9.622;2023-09-18T16:09:11;22.40;99.90